Time;durP1;ratioP1;P1;durP2;ratioP2;P2;SDS_P1;SDS_P2;PMS_P1;PMS_P2;Temp;Humidity;BMP_temperature;BMP_pressure;BME280_temperature;BME280_humidity;BME280_pressure;Samples;Min_cycle;Max_cycle;Signal;HPM_P1;HPM_P2
2021/07/15 00:11:46;;;;;;;7.07;3.93;;;;;;;21.33;100.00;100117.12;714138;1203;114523;-78
2021/07/15 00:26:49;;;;;;;10.15;4.10;;;;;;;21.24;100.00;100139.71;714415;1206;115144;-78
2021/07/15 00:41:50;;;;;;;13.47;4.27;;;;;;;21.24;100.00;100275.75;714063;1202;114948;-78
2021/07/15 00:56:53;;;;;;;10.05;4.75;;;;;;;21.10;100.00;100145.08;714158;1206;113699;-77
2021/07/15 01:12:20;;;;;;;9.63;3.80;;;;;;;20.85;100.00;100040.95;714110;1189;114149;-78
2021/07/15 01:27:53;;;;;;;8.70;4.50;;;;;;;20.85;100.00;99992.97;714091;1177;114643;-78
2021/07/15 01:43:06;;;;;;;10.07;3.83;;;;;;;20.87;100.00;99932.25;713998;1202;115245;-78
2021/07/15 01:58:09;;;;;;;10.25;3.90;;;;;;;20.95;100.00;99907.20;713986;1179;113833;-78
2021/07/15 02:13:12;;;;;;;6.97;2.63;;;;;;;21.11;100.00;99920.06;713938;1178;114680;-78
2021/07/15 02:28:16;;;;;;;6.38;3.55;;;;;;;21.06;100.00;99909.20;714010;1203;115004;-77
2021/07/15 02:43:18;;;;;;;6.13;3.47;;;;;;;20.90;100.00;99873.17;713300;1203;113906;-77
2021/07/15 02:58:26;;;;;;;7.83;3.63;;;;;;;20.81;100.00;99886.97;714072;1200;113915;-78
2021/07/15 03:13:30;;;;;;;7.80;3.50;;;;;;;20.75;100.00;99937.42;713726;1178;113996;-78
2021/07/15 03:28:35;;;;;;;9.90;4.03;;;;;;;20.88;100.00;99962.41;713876;1203;113511;-78
2021/07/15 03:43:41;;;;;;;8.73;3.55;;;;;;;20.90;100.00;99997.66;714274;1203;115005;-77
2021/07/15 03:58:45;;;;;;;14.58;4.80;;;;;;;20.90;100.00;100073.11;713630;1203;115453;-77
2021/07/15 04:13:47;;;;;;;10.37;5.17;;;;;;;21.01;100.00;100061.00;714232;1177;113945;-74
2021/07/15 04:28:51;;;;;;;11.20;4.23;;;;;;;21.84;100.00;100045.25;713810;1202;115200;-77
2021/07/15 04:43:57;;;;;;;9.08;4.08;;;;;;;22.31;100.00;100016.34;713325;1203;115535;-75
2021/07/15 04:59:02;;;;;;;11.38;4.58;;;;;;;22.69;100.00;100017.25;713746;1202;113714;-84
2021/07/15 05:14:05;;;;;;;11.65;4.40;;;;;;;22.54;100.00;100018.42;714928;1202;115623;-84
2021/07/15 05:29:07;;;;;;;16.30;5.00;;;;;;;22.37;100.00;100038.71;713940;1203;114044;-85
2021/07/15 05:44:09;;;;;;;11.17;4.20;;;;;;;22.15;100.00;100076.47;714021;1202;115451;-84
2021/07/15 05:59:12;;;;;;;13.83;4.48;;;;;;;22.34;100.00;100073.86;714036;1177;114499;-85
2021/07/15 06:14:16;;;;;;;15.40;5.58;;;;;;;22.69;100.00;100027.95;713855;1205;113990;-85
2021/07/15 06:29:18;;;;;;;11.18;5.18;;;;;;;23.06;100.00;99971.78;713812;1202;114192;-84
2021/07/15 06:44:21;;;;;;;16.37;6.83;;;;;;;23.97;100.00;99946.84;713762;1202;113761;-83
2021/07/15 06:59:23;;;;;;;17.03;5.93;;;;;;;24.30;100.00;99981.08;713642;1202;115010;-83
2021/07/15 07:14:25;;;;;;;20.13;7.63;;;;;;;24.73;100.00;100005.89;713553;1202;114369;-83
2021/07/15 07:29:28;;;;;;;16.93;5.87;;;;;;;25.63;100.00;100038.55;713695;1202;114002;-83
2021/07/15 07:44:30;;;;;;;18.48;6.45;;;;;;;26.27;100.00;100074.30;714836;1199;115620;-81
2021/07/15 07:59:32;;;;;;;51.93;20.70;;;;;;;27.10;100.00;100112.09;715011;1200;114471;-76
2021/07/15 08:14:35;;;;;;;40.50;17.18;;;;;;;27.64;100.00;100149.13;715183;1200;114294;-85
2021/07/15 08:29:38;;;;;;;37.30;17.17;;;;;;;28.11;100.00;100181.98;714717;1206;114979;-76
2021/07/15 08:44:41;;;;;;;19.98;7.28;;;;;;;27.99;100.00;100187.50;715367;1200;114819;-86
2021/07/15 08:59:43;;;;;;;24.90;10.98;;;;;;;28.41;100.00;100183.34;715594;1203;114160;-82
2021/07/15 09:14:53;;;;;;;14.13;5.70;;;;;;;28.43;100.00;100184.72;716805;1178;114240;-85
2021/07/15 09:30:06;;;;;;;25.17;10.77;;;;;;;28.84;99.96;100186.95;715380;1202;113987;-84
2021/07/15 09:45:10;;;;;;;14.73;6.85;;;;;;;29.03;95.37;100223.26;716074;1200;115803;-80
2021/07/15 10:00:13;;;;;;;12.28;4.83;;;;;;;29.71;94.20;100248.77;714545;1202;114234;-77
2021/07/15 10:15:17;;;;;;;10.93;5.00;;;;;;;30.00;89.63;100257.28;718732;1200;114121;-77
2021/07/15 10:30:19;;;;;;;12.30;4.95;;;;;;;30.75;87.22;100247.95;714891;1192;115187;-75
2021/07/15 10:45:22;;;;;;;9.47;5.97;;;;;;;30.47;85.17;100225.73;714197;1177;113991;-70
2021/07/15 11:00:28;;;;;;;12.17;5.83;;;;;;;30.53;84.15;100218.45;713682;1200;114849;-71
2021/07/15 11:15:49;;;;;;;10.03;5.50;;;;;;;31.99;81.52;100199.65;716225;1203;113966;-72
2021/07/15 11:30:56;;;;;;;8.85;4.50;;;;;;;32.30;78.09;100193.23;715364;1178;113878;-70
2021/07/15 11:46:23;;;;;;;13.35;5.33;;;;;;;31.53;79.11;100195.24;714845;1205;113665;-74
2021/07/15 12:01:33;;;;;;;7.65;5.13;;;;;;;31.97;79.66;100201.02;715048;1205;115392;-71
2021/07/15 12:16:40;;;;;;;8.77;4.73;;;;;;;31.83;79.04;100165.56;715314;1202;114102;-79
2021/07/15 12:31:43;;;;;;;7.25;4.58;;;;;;;32.65;75.25;100139.71;716892;1200;114204;-75
2021/07/15 12:46:52;;;;;;;9.30;5.50;;;;;;;33.12;74.22;100091.16;716414;1177;113905;-87
2021/07/15 13:01:55;;;;;;;7.13;4.57;;;;;;;33.94;70.61;100072.91;718977;1203;113793;-87
2021/07/15 13:16:58;;;;;;;10.08;5.28;;;;;;;32.90;71.07;100122.36;716058;1200;115342;-76
2021/07/15 13:32:19;;;;;;;9.88;5.23;;;;;;;32.69;71.11;100168.73;714198;1200;114523;-75
2021/07/15 13:47:32;;;;;;;8.68;5.58;;;;;;;32.50;69.75;100156.97;714519;1183;114640;-76
2021/07/15 14:02:35;;;;;;;7.83;5.63;;;;;;;32.74;69.67;100131.79;714605;1203;113698;-75
2021/07/15 14:17:38;;;;;;;12.70;6.35;;;;;;;32.82;71.19;100088.53;714326;1178;115486;-75
2021/07/15 14:32:40;;;;;;;8.95;6.03;;;;;;;32.77;71.83;100066.03;715252;1180;114506;-81
2021/07/15 14:47:43;;;;;;;9.80;6.77;;;;;;;32.85;72.40;100104.23;717213;1177;114342;-79
2021/07/15 15:02:52;;;;;;;13.07;7.73;;;;;;;33.49;73.17;100146.69;716973;1178;113842;-79
2021/07/15 15:17:55;;;;;;;8.60;5.60;;;;;;;33.98;71.03;100136.48;718559;1177;114245;-92
2021/07/15 15:32:57;;;;;;;11.77;5.40;;;;;;;34.29;70.53;100108.78;717739;1179;113716;-81
2021/07/15 15:47:59;;;;;;;13.30;5.60;;;;;;;33.57;70.22;100105.24;717566;1179;114049;-81
2021/07/15 16:03:01;;;;;;;14.10;5.00;;;;;;;32.96;69.90;100120.42;717088;1200;115277;-80
2021/07/15 16:18:05;;;;;;;8.97;6.87;;;;;;;32.46;72.01;100135.00;716535;1200;114845;-78
2021/07/15 16:33:07;;;;;;;9.67;5.53;;;;;;;32.13;72.98;100142.05;717462;1177;113731;-90
2021/07/15 16:48:10;;;;;;;12.50;8.00;;;;;;;31.51;75.40;100118.02;718055;1200;115227;-82
2021/07/15 17:03:15;;;;;;;12.00;6.43;;;;;;;31.17;78.84;100129.55;715236;1200;115628;-82
2021/07/15 17:18:18;;;;;;;;;;;;;;;30.65;81.54;100137.78;715626;1206;115471;-82
2021/07/15 17:33:21;;;;;;;13.70;8.67;;;;;;;30.37;83.45;100145.35;715482;1200;99789;-81
2021/07/15 17:48:23;;;;;;;11.45;8.28;;;;;;;29.94;85.41;100131.26;715248;1203;113821;-81
2021/07/15 18:03:25;;;;;;;13.67;9.13;;;;;;;29.29;87.86;100130.80;714625;1202;114039;-78
2021/07/15 18:18:28;;;;;;;12.67;8.70;;;;;;;29.05;89.88;100137.41;715148;1177;114287;-76
2021/07/15 18:33:30;;;;;;;12.63;8.40;;;;;;;28.86;92.45;100131.64;715050;1202;114104;-81
2021/07/15 18:48:33;;;;;;;16.73;9.83;;;;;;;28.41;95.04;100129.41;715645;1200;114437;-76
2021/07/15 19:03:35;;;;;;;16.43;9.13;;;;;;;27.46;97.98;100149.45;715460;1203;114520;-82
2021/07/15 19:18:40;;;;;;;10.33;7.97;;;;;;;26.84;100.00;100175.51;715165;1203;115805;-80
2021/07/15 19:33:43;;;;;;;12.55;7.58;;;;;;;26.55;100.00;100167.50;717194;1200;114254;-79
2021/07/15 19:48:45;;;;;;;9.20;7.78;;;;;;;26.34;100.00;100144.84;714693;1205;114070;-80
2021/07/15 20:03:49;;;;;;;17.18;9.53;;;;;;;26.11;100.00;100118.92;714524;1200;115587;-79
2021/07/15 20:18:52;;;;;;;15.05;10.40;;;;;;;25.93;100.00;100133.34;714850;1205;114922;-80
2021/07/15 20:33:54;;;;;;;14.23;9.33;;;;;;;25.71;100.00;100163.58;715007;1202;114747;-80
2021/07/15 20:48:57;;;;;;;14.38;10.40;;;;;;;25.30;100.00;100157.33;715207;1200;114240;-80
2021/07/15 21:03:59;;;;;;;17.03;9.93;;;;;;;25.17;100.00;100178.00;714885;1200;114294;-79
2021/07/15 21:19:01;;;;;;;17.03;9.40;;;;;;;24.73;100.00;100180.20;714807;1202;115369;-79
2021/07/15 21:34:03;;;;;;;17.30;11.63;;;;;;;24.39;100.00;100195.98;714465;1206;115364;-80
2021/07/15 21:49:05;;;;;;;17.50;10.83;;;;;;;23.89;100.00;100192.52;714553;1189;114770;-80
2021/07/15 22:04:07;;;;;;;13.48;10.00;;;;;;;23.99;100.00;100191.16;714684;1203;115583;-79
2021/07/15 22:19:11;;;;;;;17.73;11.18;;;;;;;23.92;100.00;100199.28;714600;1200;115057;-78
2021/07/15 22:34:13;;;;;;;16.47;10.93;;;;;;;23.65;100.00;100206.78;714484;1204;114916;-78
2021/07/15 22:49:15;;;;;;;27.77;18.23;;;;;;;23.57;100.00;100198.03;714454;1203;114338;-78
2021/07/15 23:04:17;;;;;;;18.35;11.60;;;;;;;23.48;100.00;100222.62;714333;1181;116112;-80
2021/07/15 23:19:20;;;;;;;16.40;11.55;;;;;;;23.13;100.00;100228.50;715681;1202;115681;-81
2021/07/15 23:34:22;;;;;;;19.95;14.20;;;;;;;23.29;100.00;100229.82;714773;1205;114653;-78
2021/07/15 23:49:24;;;;;;;21.23;12.78;;;;;;;23.37;100.00;100241.07;714291;1205;114463;-79
